Time;durP1;ratioP1;P1;durP2;ratioP2;P2;SDS_P1;SDS_P2;PMS_P1;PMS_P2;Temp;Humidity;BMP_temperature;BMP_pressure;BME280_temperature;BME280_humidity;BME280_pressure;Samples;Min_cycle;Max_cycle;Signal;HPM_P1;HPM_P2
2021/10/20 00:01:53;;;;;;;21.42;4.00;;;;;;;17.59;71.66;98225.59;5060603;28;20178;-72
2021/10/20 00:04:19;;;;;;;22.70;3.50;;;;;;;17.45;71.83;98225.81;5058847;28;20445;-71
2021/10/20 00:06:45;;;;;;;23.75;3.85;;;;;;;17.48;71.49;98223.25;5053368;28;20029;-72
2021/10/20 00:09:10;;;;;;;27.05;3.95;;;;;;;17.49;71.40;98224.84;5071561;28;20477;-72
2021/10/20 00:11:37;;;;;;;17.65;3.72;;;;;;;17.66;70.79;98209.56;5059347;28;20051;-70
2021/10/20 00:14:04;;;;;;;18.17;3.58;;;;;;;17.81;70.38;98206.28;5070222;28;20474;-70
2021/10/20 00:16:30;;;;;;;25.02;4.22;;;;;;;17.41;71.42;98204.69;5064786;28;20029;-71
2021/10/20 00:18:56;;;;;;;20.90;4.07;;;;;;;17.39;71.31;98217.03;5072440;28;20033;-70
2021/10/20 00:21:28;;;;;;;19.10;3.75;;;;;;;17.35;71.49;98216.09;5060088;28;20683;-71
2021/10/20 00:23:55;;;;;;;24.58;4.38;;;;;;;17.42;71.12;98198.13;5059300;28;20059;-71
2021/10/20 00:26:21;;;;;;;22.33;4.13;;;;;;;17.23;72.13;98198.50;5052834;28;20033;-70
2021/10/20 00:28:47;;;;;;;22.13;4.10;;;;;;;17.47;71.38;98197.16;5064879;28;20021;-71
2021/10/20 00:31:13;;;;;;;19.35;3.60;;;;;;;17.41;70.96;98172.03;5071094;28;20485;-70
2021/10/20 00:33:39;;;;;;;26.33;3.88;;;;;;;17.36;71.43;98174.94;5059144;28;20028;-70
2021/10/20 00:36:05;;;;;;;25.40;4.10;;;;;;;17.35;71.64;98178.78;5060057;28;20509;-70
2021/10/20 00:38:30;;;;;;;21.75;3.67;;;;;;;17.30;71.69;98165.34;5067396;28;20608;-71
2021/10/20 00:40:56;;;;;;;18.15;3.92;;;;;;;17.45;71.07;98180.34;5066137;28;20047;-70
2021/10/20 00:43:23;;;;;;;18.10;3.75;;;;;;;17.08;72.05;98194.38;5066086;28;20041;-70
2021/10/20 00:45:49;;;;;;;24.85;4.72;;;;;;;17.17;71.51;98182.69;5066523;28;20029;-70
2021/10/20 00:48:15;;;;;;;21.33;3.88;;;;;;;17.11;70.79;98177.41;5072423;28;20531;-70
2021/10/20 00:50:42;;;;;;;21.88;3.92;;;;;;;17.11;71.33;98179.34;5060535;28;20033;-70
2021/10/20 00:53:08;;;;;;;27.70;4.88;;;;;;;16.91;71.66;98214.25;5058346;28;20028;-70
2021/10/20 00:55:35;;;;;;;21.20;4.38;;;;;;;16.97;71.44;98234.75;5071513;28;20079;-70
2021/10/20 00:58:02;;;;;;;30.58;4.22;;;;;;;17.21;70.77;98229.88;5069577;28;20484;-70
2021/10/20 01:00:27;;;;;;;28.00;4.55;;;;;;;17.22;71.01;98223.31;5061801;28;20038;-70
2021/10/20 01:02:54;;;;;;;24.48;4.13;;;;;;;17.23;70.67;98186.81;5059721;28;20048;-71
2021/10/20 01:05:21;;;;;;;28.02;4.75;;;;;;;16.92;71.71;98175.06;5070093;28;20039;-70
2021/10/20 01:07:47;;;;;;;21.13;3.55;;;;;;;17.01;71.32;98185.94;5049127;28;20117;-71
2021/10/20 01:10:14;;;;;;;21.75;3.58;;;;;;;17.04;71.40;98192.66;5072576;28;20129;-70
2021/10/20 01:12:40;;;;;;;17.63;4.00;;;;;;;17.20;70.58;98180.13;5057161;28;20037;-71
2021/10/20 01:15:12;;;;;;;31.05;4.90;;;;;;;17.05;70.85;98167.84;5053899;28;20025;-72
2021/10/20 01:17:38;;;;;;;28.35;4.13;;;;;;;17.19;70.81;98175.00;5063706;28;20036;-70
2021/10/20 01:20:06;;;;;;;25.08;3.85;;;;;;;16.75;71.88;98156.03;5057726;28;20036;-70
2021/10/20 01:22:32;;;;;;;24.70;3.90;;;;;;;16.97;71.28;98160.50;5050757;28;20033;-71
2021/10/20 01:24:59;;;;;;;30.70;4.07;;;;;;;16.90;71.39;98157.44;5061536;28;20040;-71
2021/10/20 01:27:26;;;;;;;26.65;3.92;;;;;;;16.89;71.75;98161.28;5073035;28;20040;-71
2021/10/20 01:29:52;;;;;;;22.63;3.80;;;;;;;16.88;71.61;98148.81;5061413;28;20029;-70
2021/10/20 01:32:19;;;;;;;22.83;4.13;;;;;;;16.99;71.49;98147.38;5071364;28;20055;-70
2021/10/20 01:34:45;;;;;;;23.52;3.97;;;;;;;16.81;71.54;98133.78;5050848;28;20037;-71
2021/10/20 01:37:11;;;;;;;33.20;4.60;;;;;;;16.85;71.65;98122.28;5046712;28;20508;-70
2021/10/20 01:39:38;;;;;;;25.42;3.92;;;;;;;16.62;72.03;98131.41;5066319;28;20039;-71
2021/10/20 01:42:04;;;;;;;25.55;4.40;;;;;;;16.62;72.37;98125.19;5047490;28;20124;-71
2021/10/20 01:44:30;;;;;;;24.85;4.22;;;;;;;16.64;72.07;98114.81;5053471;28;20163;-70
2021/10/20 01:46:56;;;;;;;24.77;4.50;;;;;;;16.66;72.01;98097.03;5052372;28;20021;-70
2021/10/20 01:49:23;;;;;;;27.05;4.32;;;;;;;16.50;72.62;98099.47;5063273;28;20041;-70
2021/10/20 01:51:49;;;;;;;27.30;4.20;;;;;;;16.62;72.29;98098.81;5052254;28;20033;-70
2021/10/20 01:54:15;;;;;;;26.35;4.10;;;;;;;16.54;72.59;98089.56;5059210;28;20090;-70
2021/10/20 01:56:45;;;;;;;29.98;4.38;;;;;;;16.64;72.10;98082.19;5067536;28;20032;-70
2021/10/20 01:59:11;;;;;;;26.23;4.18;;;;;;;16.55;72.43;98074.03;5066809;28;20496;-70
2021/10/20 02:01:37;;;;;;;23.85;3.35;;;;;;;16.53;71.90;98073.56;5056562;28;20044;-70
2021/10/20 02:04:09;;;;;;;27.15;4.07;;;;;;;16.67;71.91;98076.88;5055629;28;20364;-70
2021/10/20 02:06:35;;;;;;;33.90;4.82;;;;;;;16.47;72.45;98078.38;5050594;28;20040;-70
2021/10/20 02:09:01;;;;;;;24.75;4.22;;;;;;;16.56;72.13;98091.16;5048594;28;20049;-71
2021/10/20 02:11:27;;;;;;;35.13;4.85;;;;;;;16.67;71.78;98087.75;5056285;28;20393;-70
2021/10/20 02:13:53;;;;;;;28.80;5.10;;;;;;;16.58;72.09;98086.19;5060495;28;20509;-70
2021/10/20 02:16:18;;;;;;;20.85;3.67;;;;;;;16.52;72.64;98083.66;5063266;28;20362;-71
2021/10/20 02:18:44;;;;;;;26.75;4.65;;;;;;;16.63;72.31;98096.91;5067725;28;20044;-71
2021/10/20 02:21:09;;;;;;;30.27;4.63;;;;;;;16.57;72.11;98101.69;5061110;28;20040;-70
2021/10/20 02:23:35;;;;;;;18.50;4.28;;;;;;;16.46;72.37;98106.69;5070830;28;20024;-71
2021/10/20 02:26:01;;;;;;;28.65;4.72;;;;;;;16.63;71.92;98094.19;5065017;28;20101;-70
2021/10/20 02:28:26;;;;;;;26.80;4.75;;;;;;;16.59;72.23;98104.88;5057444;28;20033;-70
2021/10/20 02:30:52;;;;;;;22.48;4.15;;;;;;;16.54;72.48;98127.63;5062276;28;20115;-70
2021/10/20 02:33:17;;;;;;;30.20;4.45;;;;;;;16.62;72.12;98119.75;5056085;28;20031;-70
2021/10/20 02:35:43;;;;;;;27.90;4.80;;;;;;;16.46;72.32;98114.84;5054849;28;20115;-70
2021/10/20 02:38:08;;;;;;;27.73;4.97;;;;;;;16.56;72.38;98108.25;5059401;28;20033;-70
2021/10/20 02:40:34;;;;;;;30.13;4.88;;;;;;;16.51;72.54;98089.41;5058613;28;20393;-70
2021/10/20 02:43:00;;;;;;;32.75;5.85;;;;;;;16.17;73.92;98077.47;5058826;28;20490;-71
2021/10/20 02:45:26;;;;;;;28.90;5.25;;;;;;;16.31;73.39;98078.09;5066633;28;20047;-71
2021/10/20 02:47:51;;;;;;;31.95;4.68;;;;;;;16.15;73.92;98069.66;5058170;28;21027;-70
2021/10/20 02:50:17;;;;;;;37.10;5.25;;;;;;;16.22;73.39;98074.56;5051064;28;20033;-71
2021/10/20 02:52:43;;;;;;;34.08;4.53;;;;;;;16.23;73.29;98065.31;5061902;28;20047;-70
2021/10/20 02:55:09;;;;;;;25.35;4.43;;;;;;;16.28;73.33;98067.06;5052707;28;20136;-70
2021/10/20 02:57:35;;;;;;;22.75;4.60;;;;;;;16.30;73.43;98067.56;5070431;28;20037;-70
2021/10/20 03:00:00;;;;;;;28.13;4.93;;;;;;;16.19;73.70;98062.44;5057849;28;20032;-70
2021/10/20 03:02:27;;;;;;;23.40;4.00;;;;;;;16.27;73.38;98068.19;5063205;28;20053;-70
2021/10/20 03:04:53;;;;;;;22.02;4.53;;;;;;;16.19;73.31;98065.16;5067364;28;20039;-70
2021/10/20 03:07:19;;;;;;;36.15;5.10;;;;;;;16.12;73.45;98051.28;5062382;28;20068;-71
2021/10/20 03:09:44;;;;;;;26.77;4.72;;;;;;;16.17;73.49;98053.81;5059612;28;20075;-70
2021/10/20 03:12:10;;;;;;;23.23;4.35;;;;;;;16.09;74.10;98058.13;5069481;28;20106;-70
2021/10/20 03:14:35;;;;;;;26.35;4.55;;;;;;;16.15;73.64;98045.19;5062726;28;20082;-70
2021/10/20 03:17:01;;;;;;;23.05;3.90;;;;;;;16.08;73.94;98040.25;5057253;28;20481;-70
2021/10/20 03:19:27;;;;;;;29.88;4.53;;;;;;;16.02;74.17;98030.66;5067480;28;20033;-71
2021/10/20 03:21:52;;;;;;;25.45;4.10;;;;;;;15.91;74.68;98026.69;5055229;28;20098;-70
2021/10/20 03:24:18;;;;;;;35.08;4.97;;;;;;;15.85;74.24;98015.13;5071664;28;20417;-70
2021/10/20 03:26:45;;;;;;;20.55;3.75;;;;;;;15.89;74.07;98023.50;5059357;28;20036;-70
2021/10/20 03:29:10;;;;;;;30.50;4.72;;;;;;;15.80;74.47;98018.84;5065905;28;20036;-70
2021/10/20 03:31:36;;;;;;;36.30;5.07;;;;;;;15.75;74.86;98024.41;5061597;28;20028;-70
2021/10/20 03:34:02;;;;;;;25.63;4.53;;;;;;;15.72;74.26;98014.19;5061988;28;20516;-69
2021/10/20 03:36:28;;;;;;;24.40;4.00;;;;;;;15.60;75.51;98016.75;5044722;28;20037;-70
2021/10/20 03:38:54;;;;;;;31.33;4.57;;;;;;;15.62;74.88;98009.88;5045831;28;20520;-70
2021/10/20 03:41:20;;;;;;;26.15;4.63;;;;;;;15.54;75.46;98005.25;5062267;28;20045;-70
2021/10/20 03:43:45;;;;;;;28.67;4.38;;;;;;;15.61;75.36;97994.72;5054904;28;20051;-70
2021/10/20 03:46:11;;;;;;;26.15;4.75;;;;;;;15.58;75.31;97998.06;5059085;28;20033;-70
2021/10/20 03:48:37;;;;;;;29.10;4.70;;;;;;;15.51;75.33;98001.25;5053007;28;20036;-70
2021/10/20 03:51:04;;;;;;;28.45;4.05;;;;;;;15.49;76.04;97998.06;5067676;28;20036;-70
2021/10/20 03:53:29;;;;;;;34.00;4.68;;;;;;;15.46;76.33;97989.75;5069754;28;20514;-70
2021/10/20 03:55:55;;;;;;;29.25;3.97;;;;;;;15.42;76.39;97983.38;5060824;28;20124;-70
2021/10/20 03:58:22;;;;;;;33.05;4.72;;;;;;;15.39;76.46;97984.81;5053399;28;20043;-70
2021/10/20 04:00:50;;;;;;;28.92;4.50;;;;;;;15.42;76.15;97972.53;5052762;28;20033;-70
2021/10/20 04:03:16;;;;;;;28.58;4.03;;;;;;;15.48;75.90;97974.78;5063600;28;20116;-70
2021/10/20 04:05:42;;;;;;;30.85;4.28;;;;;;;15.56;75.54;97975.09;5063427;28;20029;-70
2021/10/20 04:08:08;;;;;;;35.50;5.25;;;;;;;15.53;76.14;97960.22;5063614;28;20501;-70
2021/10/20 04:10:34;;;;;;;28.20;5.00;;;;;;;15.56;75.92;97977.81;5060539;28;20040;-70
2021/10/20 04:13:00;;;;;;;33.83;7.47;;;;;;;15.51;76.08;97987.69;5068868;28;20029;-70
2021/10/20 04:15:26;;;;;;;28.08;4.88;;;;;;;15.60;75.84;97987.69;5068131;28;20031;-70
2021/10/20 04:17:53;;;;;;;29.65;4.50;;;;;;;15.58;75.85;97981.78;5059755;28;20025;-70
2021/10/20 04:20:20;;;;;;;23.25;4.22;;;;;;;15.64;75.06;97979.72;5065071;28;20048;-70
2021/10/20 04:22:48;;;;;;;28.67;4.55;;;;;;;15.60;75.34;97967.91;5075521;28;20031;-71
2021/10/20 04:25:16;;;;;;;29.38;4.70;;;;;;;15.59;75.30;97958.16;5072039;28;20036;-70
2021/10/20 04:27:42;;;;;;;31.52;5.00;;;;;;;15.58;75.14;97951.16;5090508;28;20059;-70
2021/10/20 04:30:10;;;;;;;20.27;3.88;;;;;;;15.66;74.75;97932.13;5049291;28;20036;-71
2021/10/20 04:32:36;;;;;;;33.70;4.45;;;;;;;15.63;74.67;97927.34;5059222;28;20033;-71
2021/10/20 04:35:03;;;;;;;35.33;4.35;;;;;;;15.59;74.69;97933.75;5064293;28;20093;-70
2021/10/20 04:37:29;;;;;;;33.30;4.70;;;;;;;15.55;74.94;97935.50;5055692;28;20037;-71
2021/10/20 04:39:57;;;;;;;32.97;4.45;;;;;;;15.40;75.31;97912.38;5052990;28;20055;-70
2021/10/20 04:42:23;;;;;;;30.13;4.57;;;;;;;15.29;75.12;97918.09;5069866;28;20744;-70
2021/10/20 04:44:49;;;;;;;34.70;4.75;;;;;;;15.22;75.69;97923.22;5058746;28;20128;-71
2021/10/20 04:47:15;;;;;;;32.33;4.13;;;;;;;15.17;75.65;97923.38;5072441;28;20029;-70
2021/10/20 04:49:42;;;;;;;30.73;4.65;;;;;;;15.12;75.52;97915.38;5056178;28;20119;-70
2021/10/20 04:52:07;;;;;;;31.95;5.18;;;;;;;15.10;76.09;97899.44;5062351;28;20090;-71
2021/10/20 04:54:33;;;;;;;30.88;4.82;;;;;;;15.03;75.63;97896.41;5072606;28;20037;-70
2021/10/20 04:56:58;;;;;;;28.23;5.03;;;;;;;15.00;76.69;97889.69;5068376;28;20037;-70
2021/10/20 04:59:24;;;;;;;32.75;4.68;;;;;;;15.02;76.22;97886.66;5061985;28;20040;-70
2021/10/20 05:01:49;;;;;;;29.83;3.97;;;;;;;14.97;75.96;97887.63;5068459;28;20067;-70
2021/10/20 05:04:15;;;;;;;35.88;5.00;;;;;;;14.84;76.80;97883.13;5058712;28;20036;-70
2021/10/20 05:06:41;;;;;;;41.17;5.18;;;;;;;14.87;76.34;97868.94;5058798;28;20044;-70
2021/10/20 05:09:07;;;;;;;38.50;5.82;;;;;;;14.81;76.98;97857.47;5063210;28;20043;-72
2021/10/20 05:11:33;;;;;;;31.35;4.13;;;;;;;14.83;76.53;97849.03;5055497;28;20032;-71
2021/10/20 05:13:58;;;;;;;27.40;4.63;;;;;;;14.88;76.12;97844.22;5069700;28;20033;-71
2021/10/20 05:16:24;;;;;;;30.52;4.88;;;;;;;14.99;75.68;97841.22;5061809;28;20032;-71
2021/10/20 05:18:49;;;;;;;27.85;5.72;;;;;;;15.05;75.40;97843.44;5058735;28;20522;-70
2021/10/20 05:21:15;;;;;;;36.05;5.45;;;;;;;15.06;74.87;97836.91;5061943;28;20562;-71
2021/10/20 05:23:40;;;;;;;35.28;5.22;;;;;;;14.98;75.30;97837.72;5057647;28;20044;-71
2021/10/20 05:26:06;;;;;;;38.13;4.60;;;;;;;14.90;75.47;97835.78;5052270;28;20035;-71
2021/10/20 05:28:32;;;;;;;29.92;5.07;;;;;;;14.78;75.81;97841.84;5069340;28;20032;-72
2021/10/20 05:30:59;;;;;;;37.05;5.53;;;;;;;14.71;76.25;97825.25;5063694;28;20128;-72
2021/10/20 05:33:25;;;;;;;34.42;5.60;;;;;;;14.70;76.24;97839.91;5066721;28;20119;-71
2021/10/20 05:35:50;;;;;;;30.80;4.93;;;;;;;14.62;76.66;97838.75;5056455;28;20033;-72
2021/10/20 05:38:16;;;;;;;30.88;4.82;;;;;;;14.58;76.56;97835.09;5060980;28;20505;-71
2021/10/20 05:40:41;;;;;;;41.75;5.15;;;;;;;14.63;76.35;97834.94;5062472;28;20021;-70
2021/10/20 05:43:08;;;;;;;33.78;4.90;;;;;;;14.53;76.69;97825.19;5052573;28;20676;-72
2021/10/20 05:45:33;;;;;;;41.83;5.13;;;;;;;14.56;76.98;97821.84;5059979;28;20036;-71
2021/10/20 05:47:59;;;;;;;43.85;5.45;;;;;;;14.63;76.63;97816.75;5064303;28;20025;-71
2021/10/20 05:50:24;;;;;;;34.35;5.00;;;;;;;14.71;76.48;97817.13;5062069;28;20035;-71
2021/10/20 05:52:50;;;;;;;28.15;4.43;;;;;;;14.63;76.80;97808.63;5072464;28;20032;-71
2021/10/20 05:55:15;;;;;;;37.63;5.63;;;;;;;14.58;77.13;97797.94;5055998;28;20029;-74
2021/10/20 05:57:41;;;;;;;32.65;4.35;;;;;;;14.50;77.62;97782.47;5061233;28;20037;-73
2021/10/20 06:00:10;;;;;;;33.35;4.78;;;;;;;14.49;77.66;97768.16;5058774;28;20028;-71
2021/10/20 06:02:36;;;;;;;38.50;5.10;;;;;;;14.53;77.55;97760.19;5059914;28;20425;-71
2021/10/20 06:05:02;;;;;;;34.92;4.95;;;;;;;14.53;77.48;97749.34;5061230;28;20044;-71
2021/10/20 06:07:28;;;;;;;33.65;4.90;;;;;;;14.47;77.42;97747.91;5058105;28;20111;-71
2021/10/20 06:09:54;;;;;;;27.27;4.53;;;;;;;14.39;77.09;97744.09;5064661;28;20116;-72
2021/10/20 06:12:20;;;;;;;29.65;4.80;;;;;;;14.35;77.56;97745.84;5069055;28;20028;-72
2021/10/20 06:14:45;;;;;;;36.60;4.50;;;;;;;14.32;77.71;97747.25;5044439;28;20033;-70
2021/10/20 06:17:11;;;;;;;44.20;4.68;;;;;;;14.33;77.75;97748.06;5052310;28;20037;-72
2021/10/20 06:19:39;;;;;;;48.50;6.47;;;;;;;14.38;77.92;97750.63;5057699;28;20557;-72
2021/10/20 06:22:04;;;;;;;33.35;4.45;;;;;;;14.38;77.11;97750.63;5053975;28;20139;-71
2021/10/20 06:24:30;;;;;;;30.05;4.97;;;;;;;14.35;76.68;97757.44;5048276;28;20094;-71
2021/10/20 06:26:56;;;;;;;47.83;5.53;;;;;;;14.26;77.52;97761.28;5054832;28;20063;-71
2021/10/20 06:29:25;;;;;;;38.55;5.20;;;;;;;14.15;77.71;97753.44;5064378;28;20064;-70
2021/10/20 06:31:50;;;;;;;50.30;5.75;;;;;;;14.04;78.22;97755.63;5053863;28;20091;-70
2021/10/20 06:34:16;;;;;;;50.17;6.78;;;;;;;13.96;78.43;97764.53;5055859;28;20449;-68
2021/10/20 06:36:42;;;;;;;40.78;6.50;;;;;;;13.98;79.07;97764.19;5050008;28;20033;-69
2021/10/20 06:39:07;;;;;;;39.15;6.38;;;;;;;13.97;79.18;97768.84;5049625;28;20066;-69
2021/10/20 06:41:33;;;;;;;43.65;6.95;;;;;;;13.98;78.94;97772.31;5051709;28;20116;-69
2021/10/20 06:43:58;;;;;;;33.85;6.47;;;;;;;13.94;78.81;97774.88;5058984;28;20064;-69
2021/10/20 06:46:25;;;;;;;39.28;7.15;;;;;;;13.97;78.76;97768.84;5053840;28;20032;-69
2021/10/20 06:48:50;;;;;;;34.95;7.43;;;;;;;14.05;78.58;97767.25;5052529;28;20074;-69
2021/10/20 06:51:16;;;;;;;34.08;7.05;;;;;;;14.03;78.71;97761.34;5069342;28;20045;-69
2021/10/20 06:53:42;;;;;;;46.05;8.02;;;;;;;14.05;79.13;97765.34;5054946;28;20041;-69
2021/10/20 06:56:07;;;;;;;48.28;9.25;;;;;;;14.04;79.33;97758.34;5067900;28;20073;-69
2021/10/20 06:58:34;;;;;;;34.47;8.65;;;;;;;14.08;79.15;97757.72;5052417;28;20478;-69
2021/10/20 07:01:00;;;;;;;45.80;9.45;;;;;;;14.11;79.53;97746.25;5049599;28;20040;-68
2021/10/20 07:03:25;;;;;;;52.22;10.35;;;;;;;14.13;79.23;97749.44;5051943;28;20460;-69
2021/10/20 07:05:51;;;;;;;52.40;10.32;;;;;;;14.18;79.00;97747.41;5063693;28;20036;-69
2021/10/20 07:08:17;;;;;;;43.67;9.40;;;;;;;14.18;78.97;97744.69;5051269;28;20579;-69
2021/10/20 07:10:43;;;;;;;38.88;10.10;;;;;;;14.29;78.44;97745.19;5068867;28;20064;-72
2021/10/20 07:16:03;;;;;;;40.15;9.48;;;;;;;14.27;79.02;97735.78;5043702;28;20052;-71
2021/10/20 07:18:31;;;;;;;37.70;9.75;;;;;;;14.32;78.31;97736.41;5056245;28;20025;-70
2021/10/20 07:20:57;;;;;;;44.92;9.77;;;;;;;14.37;78.35;97740.91;5055216;28;20068;-69
2021/10/20 07:23:22;;;;;;;39.55;8.85;;;;;;;14.39;78.37;97727.84;5056521;28;20130;-68
2021/10/20 07:25:48;;;;;;;40.00;8.63;;;;;;;14.39;78.50;97721.63;5053993;28;20033;-68
2021/10/20 07:28:13;;;;;;;38.17;8.40;;;;;;;14.43;78.24;97722.56;5055482;28;20033;-68
2021/10/20 07:30:39;;;;;;;38.25;8.25;;;;;;;14.55;77.82;97725.44;5062075;28;20032;-68
2021/10/20 07:33:05;;;;;;;33.00;7.88;;;;;;;14.57;77.96;97715.09;5056597;28;20462;-68
2021/10/20 07:35:31;;;;;;;42.50;8.85;;;;;;;14.62;77.50;97716.84;5051514;28;20090;-68
2021/10/20 07:37:57;;;;;;;40.28;7.63;;;;;;;14.59;77.37;97718.28;5057013;28;20033;-71
2021/10/20 07:40:23;;;;;;;42.40;7.45;;;;;;;14.69;76.86;97713.66;5058734;28;20040;-68
2021/10/20 07:42:48;;;;;;;51.10;8.27;;;;;;;14.72;77.05;97704.91;5065586;28;20032;-70
2021/10/20 07:45:19;;;;;;;39.28;7.78;;;;;;;14.77;76.69;97702.84;5043597;28;20028;-69
2021/10/20 07:47:48;;;;;;;42.67;8.18;;;;;;;14.77;76.84;97707.47;5059846;28;20045;-69
2021/10/20 07:50:16;;;;;;;34.30;7.72;;;;;;;14.79;76.77;97713.34;5062018;28;20051;-69
2021/10/20 07:52:43;;;;;;;44.53;9.00;;;;;;;14.76;76.51;97716.69;5059467;28;20068;-69
2021/10/20 07:55:09;;;;;;;39.13;8.60;;;;;;;14.82;76.61;97712.72;5053350;28;20033;-69
2021/10/20 07:57:36;;;;;;;40.17;9.18;;;;;;;14.71;76.64;97704.13;5075627;28;20230;-68
2021/10/20 08:00:04;;;;;;;45.40;10.27;;;;;;;14.85;76.43;97705.88;5061214;28;20541;-69
2021/10/20 08:02:30;;;;;;;38.85;8.73;;;;;;;15.01;75.80;97709.66;5061664;28;20137;-70
2021/10/20 08:04:56;;;;;;;48.40;9.27;;;;;;;15.15;75.39;97701.34;5042339;28;20032;-70
2021/10/20 08:07:22;;;;;;;43.13;8.40;;;;;;;15.12;75.57;97696.56;5055282;28;20140;-70
2021/10/20 08:09:48;;;;;;;43.75;7.75;;;;;;;15.25;74.36;97689.34;5064961;28;20592;-70
2021/10/20 08:12:16;;;;;;;42.03;8.00;;;;;;;15.44;74.25;97690.88;5060721;28;20041;-70
2021/10/20 08:14:45;;;;;;;36.80;7.28;;;;;;;15.46;74.26;97684.03;5042785;28;20055;-68
2021/10/20 08:17:11;;;;;;;41.38;6.95;;;;;;;15.47;74.06;97698.38;5064739;28;20504;-69
2021/10/20 08:19:37;;;;;;;33.58;6.53;;;;;;;15.47;73.61;97695.66;5060180;28;20028;-69
2021/10/20 08:22:03;;;;;;;36.45;6.35;;;;;;;15.34;73.89;97702.91;5060847;28;20040;-70
2021/10/20 08:24:28;;;;;;;39.47;6.93;;;;;;;15.41;74.03;97710.50;5049571;28;20033;-69
2021/10/20 08:26:54;;;;;;;43.55;6.18;;;;;;;15.33;74.03;97717.56;5056088;28;20036;-70
2021/10/20 08:29:20;;;;;;;29.63;5.63;;;;;;;15.40;74.00;97717.06;5066986;28;20043;-70
2021/10/20 08:31:45;;;;;;;40.53;5.65;;;;;;;15.28;74.93;97718.53;5069706;28;20029;-70
2021/10/20 08:34:11;;;;;;;34.35;5.35;;;;;;;15.40;74.38;97714.34;5057556;28;20106;-67
2021/10/20 08:36:38;;;;;;;26.98;5.68;;;;;;;15.44;74.46;97707.16;5041514;28;20029;-68
2021/10/20 08:39:03;;;;;;;47.03;8.23;;;;;;;15.47;74.52;97701.06;5061028;28;20036;-69
2021/10/20 08:41:30;;;;;;;56.22;10.80;;;;;;;15.39;74.68;97700.00;5066814;28;20051;-68
2021/10/20 08:43:57;;;;;;;46.92;8.02;;;;;;;15.55;74.75;97696.75;5051262;28;20032;-68
2021/10/20 08:46:25;;;;;;;40.08;6.20;;;;;;;15.46;74.87;97689.44;5054363;28;20041;-68
2021/10/20 08:48:54;;;;;;;30.17;5.78;;;;;;;15.60;74.52;97683.78;5065448;28;20032;-69
2021/10/20 08:51:22;;;;;;;41.88;5.75;;;;;;;15.55;74.79;97689.41;5059812;28;20655;-68
2021/10/20 08:53:49;;;;;;;31.60;5.15;;;;;;;15.50;74.92;97671.41;5057436;28;20608;-69
2021/10/20 08:56:17;;;;;;;40.13;7.70;;;;;;;15.49;75.30;97674.41;5034921;28;20036;-69
2021/10/20 08:58:43;;;;;;;32.53;5.05;;;;;;;15.22;76.18;97673.72;5064610;28;20028;-69
2021/10/20 09:01:09;;;;;;;29.35;5.22;;;;;;;15.21;76.42;97681.09;5066207;28;20046;-68
2021/10/20 09:03:35;;;;;;;29.15;5.20;;;;;;;15.16;76.41;97688.59;5058529;28;20044;-68
2021/10/20 09:06:00;;;;;;;28.80;4.20;;;;;;;15.17;76.41;97674.72;5046443;28;20089;-69
2021/10/20 09:08:26;;;;;;;17.50;3.83;;;;;;;15.22;76.82;97662.88;5067201;28;20056;-69
2021/10/20 09:10:52;;;;;;;27.92;4.22;;;;;;;15.27;76.37;97651.06;5060990;28;20405;-67
2021/10/20 09:13:17;;;;;;;17.98;3.30;;;;;;;15.18;76.98;97641.06;5060762;28;20099;-70
2021/10/20 09:15:44;;;;;;;26.27;3.83;;;;;;;15.13;76.84;97629.59;5036461;28;20482;-70
2021/10/20 09:18:12;;;;;;;19.08;3.97;;;;;;;15.12;77.09;97601.69;5058445;28;20040;-69
2021/10/20 09:20:43;;;;;;;16.10;3.03;;;;;;;15.14;75.96;97594.03;5054825;28;20040;-69
2021/10/20 09:23:22;;;;;;;12.27;2.67;;;;;;;15.28;76.05;97614.69;5060598;28;20025;-69
2021/10/20 09:25:58;;;;;;;17.92;2.80;;;;;;;15.10;76.27;97611.25;5034725;28;20029;-69
2021/10/20 09:28:35;;;;;;;15.05;2.88;;;;;;;15.14;75.95;97604.88;5056930;28;20028;-69
2021/10/20 09:31:02;;;;;;;10.05;2.50;;;;;;;15.21;76.21;97599.72;5055472;28;20049;-67
2021/10/20 09:33:33;;;;;;;17.02;3.85;;;;;;;15.28;76.04;97601.13;5048971;28;20083;-67
2021/10/20 09:36:02;;;;;;;19.08;3.90;;;;;;;15.43;75.39;97606.00;5045809;28;20043;-67
2021/10/20 09:38:33;;;;;;;13.60;3.35;;;;;;;15.46;74.70;97615.41;5062227;28;20663;-67
2021/10/20 09:41:03;;;;;;;15.65;4.20;;;;;;;15.50;74.76;97614.44;5063417;28;20056;-68
2021/10/20 09:43:30;;;;;;;13.40;4.22;;;;;;;15.71;73.37;97616.38;5050711;28;20029;-68
2021/10/20 09:45:56;;;;;;;13.75;3.90;;;;;;;16.04;73.24;97617.63;5045912;28;20021;-68
2021/10/20 09:48:24;;;;;;;15.85;3.10;;;;;;;16.09;72.31;97612.78;5060133;28;20555;-68
2021/10/20 09:51:12;;;;;;;14.18;2.30;;;;;;;16.50;69.70;97615.00;5057208;28;20028;-67
2021/10/20 09:53:43;;;;;;;8.98;1.60;;;;;;;16.37;69.46;97604.09;5052396;28;20071;-67
2021/10/20 09:56:17;;;;;;;7.15;1.52;;;;;;;16.69;69.81;97611.78;5040231;28;20021;-68
2021/10/20 09:58:46;;;;;;;7.43;1.33;;;;;;;16.76;69.09;97608.50;5058270;28;20068;-68
2021/10/20 10:01:20;;;;;;;5.50;1.65;;;;;;;16.91;68.93;97596.22;5048379;28;20032;-67
2021/10/20 10:03:45;;;;;;;6.20;1.35;;;;;;;16.66;67.62;97599.66;5058465;28;20086;-67
2021/10/20 10:06:11;;;;;;;3.88;1.10;;;;;;;16.77;66.81;97578.28;5030506;28;20025;-68
2021/10/20 10:08:37;;;;;;;3.50;0.82;;;;;;;16.88;65.82;97570.50;5063812;28;20490;-68
2021/10/20 10:11:03;;;;;;;5.35;1.17;;;;;;;17.07;66.36;97566.47;5060797;28;20047;-68
2021/10/20 10:13:33;;;;;;;3.90;1.02;;;;;;;17.05;65.21;97558.63;5055800;28;20025;-67
2021/10/20 10:16:00;;;;;;;3.05;0.88;;;;;;;16.96;65.32;97564.16;5044780;28;20060;-68
2021/10/20 10:18:27;;;;;;;5.13;1.02;;;;;;;16.96;65.60;97545.13;5054881;28;20071;-67
2021/10/20 10:20:53;;;;;;;4.50;0.80;;;;;;;16.60;64.84;97546.66;5062090;28;20043;-67
2021/10/20 10:23:23;;;;;;;3.92;0.85;;;;;;;16.94;65.69;97547.41;5052826;28;20025;-68
2021/10/20 10:26:06;;;;;;;6.10;1.35;;;;;;;16.76;65.80;97546.81;5062684;28;20119;-67
2021/10/20 10:28:34;;;;;;;5.28;0.70;;;;;;;16.66;67.02;97539.09;5050762;28;20114;-67
2021/10/20 10:31:08;;;;;;;6.40;1.05;;;;;;;16.85;66.01;97540.47;5053830;28;20115;-67
2021/10/20 10:33:38;;;;;;;12.20;1.25;;;;;;;16.74;66.82;97521.06;5055074;28;20024;-68
2021/10/20 10:36:18;;;;;;;4.35;1.17;;;;;;;16.61;67.51;97534.66;5056451;28;20086;-68
2021/10/20 10:39:07;;;;;;;6.22;1.45;;;;;;;16.56;67.61;97518.56;5058615;28;20040;-69
2021/10/20 10:41:34;;;;;;;12.45;1.60;;;;;;;16.61;67.23;97518.34;5060367;28;20176;-67
2021/10/20 10:44:03;;;;;;;4.75;1.25;;;;;;;16.68;67.65;97517.78;5054901;28;20112;-67
2021/10/20 10:46:32;;;;;;;5.60;1.13;;;;;;;16.77;67.08;97502.19;5065170;28;20064;-68
2021/10/20 10:48:58;;;;;;;4.57;1.08;;;;;;;16.71;67.17;97500.00;5055859;28;20044;-67
2021/10/20 10:51:25;;;;;;;4.60;1.00;;;;;;;16.69;67.31;97506.56;5060832;28;20028;-69
2021/10/20 10:53:52;;;;;;;7.35;1.63;;;;;;;16.78;67.43;97492.09;5056120;28;20025;-68
2021/10/20 10:56:19;;;;;;;5.18;1.42;;;;;;;16.96;67.36;97500.81;5055223;28;20047;-69
2021/10/20 10:59:04;;;;;;;5.65;1.20;;;;;;;16.71;66.85;97487.22;5059230;28;20029;-67
2021/10/20 11:01:36;;;;;;;6.68;1.67;;;;;;;16.56;67.36;97485.16;5054752;28;20064;-68
2021/10/20 11:04:26;;;;;;;9.13;1.35;;;;;;;16.71;67.95;97491.84;5059314;28;20293;-69
2021/10/20 11:06:53;;;;;;;6.82;1.63;;;;;;;16.72;67.58;97490.72;5053388;28;20130;-68
2021/10/20 11:09:26;;;;;;;9.93;1.58;;;;;;;16.83;67.57;97478.28;5057299;28;20047;-68
2021/10/20 11:11:54;;;;;;;5.95;1.38;;;;;;;16.88;68.86;97477.25;5059041;28;20045;-68
2021/10/20 11:14:22;;;;;;;7.85;1.77;;;;;;;16.67;69.37;97475.44;5060792;28;20043;-69
2021/10/20 11:16:49;;;;;;;10.75;1.70;;;;;;;16.71;70.10;97480.97;5057391;28;20494;-67
2021/10/20 11:19:20;;;;;;;6.80;1.65;;;;;;;16.33;72.14;97472.78;5060363;28;20433;-67
2021/10/20 11:21:46;;;;;;;6.28;1.17;;;;;;;16.44;72.65;97473.16;5066332;28;20043;-68
2021/10/20 11:24:14;;;;;;;4.63;1.27;;;;;;;16.34;73.03;97465.44;5061297;28;20400;-68
2021/10/20 11:26:39;;;;;;;7.15;1.33;;;;;;;16.13;72.69;97460.88;5067124;28;20048;-69
2021/10/20 11:29:09;;;;;;;6.57;1.42;;;;;;;16.06;72.98;97455.19;5064439;28;20486;-69